createdAt,value
2018-08-30T00:01:15.787Z,42.15
2018-08-30T00:03:50.934Z,40.63
2018-08-30T00:06:25.290Z,38.65
2018-08-30T00:08:59.367Z,39.50
2018-08-30T00:11:33.444Z,39.00
2018-08-30T00:14:07.514Z,36.33
2018-08-30T00:16:42.309Z,39.25
2018-08-30T00:19:17.111Z,38.88
2018-08-30T00:21:51.344Z,37.08
2018-08-30T00:24:26.226Z,37.67
2018-08-30T00:27:02.027Z,37.42
2018-08-30T00:29:36.049Z,36.45
2018-08-30T00:32:10.188Z,37.98
2018-08-30T00:34:45.183Z,38.35
2018-08-30T00:37:19.873Z,39.60
2018-08-30T00:39:54.267Z,37.17
2018-08-30T00:42:29.147Z,39.05
2018-08-30T00:45:03.943Z,38.83
2018-08-30T00:47:38.371Z,38.45
2018-08-30T00:50:13.157Z,40.35
2018-08-30T00:52:47.209Z,38.15
2018-08-30T00:55:22.186Z,40.65
2018-08-30T00:57:56.886Z,42.83
2018-08-30T01:00:31.505Z,43.23
2018-08-30T01:03:05.898Z,40.80
2018-08-30T01:05:40.931Z,46.23
2018-08-30T01:08:15.948Z,45.47
2018-08-30T01:10:50.452Z,44.58
2018-08-30T01:13:24.426Z,43.10
2018-08-30T01:15:58.216Z,45.57
2018-08-30T01:18:32.973Z,43.55
2018-08-30T01:21:06.812Z,42.57
2018-08-30T01:23:41.498Z,42.23
2018-08-30T01:26:15.876Z,40.57
2018-08-30T01:28:50.398Z,38.13
2018-08-30T01:31:25.326Z,38.70
2018-08-30T01:34:00.578Z,37.85
2018-08-30T01:36:34.969Z,39.20
2018-08-30T01:39:09.676Z,37.93
2018-08-30T01:41:44.021Z,36.13
2018-08-30T01:44:18.503Z,35.33
2018-08-30T01:46:53.290Z,34.17
2018-08-30T01:49:28.333Z,34.03
2018-08-30T01:52:02.516Z,34.70
2018-08-30T01:54:36.708Z,33.57
2018-08-30T01:57:11.661Z,31.33
2018-08-30T01:59:46.084Z,32.30
2018-08-30T02:02:20.678Z,33.00
2018-08-30T02:04:54.961Z,31.57
2018-08-30T02:07:29.667Z,30.03
2018-08-30T02:10:05.146Z,30.50
2018-08-30T02:12:39.317Z,30.57
2018-08-30T02:15:13.386Z,32.23
2018-08-30T02:17:47.357Z,31.60
2018-08-30T02:20:21.497Z,32.07
2018-08-30T02:22:56.539Z,33.53
2018-08-30T02:25:30.625Z,29.77
2018-08-30T02:28:04.973Z,30.20
2018-08-30T02:30:39.576Z,28.23
2018-08-30T02:33:13.648Z,26.93
2018-08-30T02:35:48.009Z,29.97
2018-08-30T02:38:22.294Z,29.17
2018-08-30T02:40:57.261Z,31.23
2018-08-30T02:43:32.439Z,31.90
2018-08-30T02:46:06.551Z,31.13
2018-08-30T02:48:40.827Z,28.17
2018-08-30T02:51:15.852Z,28.73
2018-08-30T02:53:50.283Z,26.17
2018-08-30T02:56:25.354Z,29.23
2018-08-30T02:59:00.972Z,27.93
2018-08-30T03:01:35.828Z,27.50
2018-08-30T03:04:09.899Z,25.93
2018-08-30T03:06:44.112Z,26.47
2018-08-30T03:09:18.799Z,25.37
2018-08-30T03:11:53.263Z,23.87
2018-08-30T03:14:27.267Z,23.83
2018-08-30T03:17:01.509Z,22.57
2018-08-30T03:21:58.137Z,19.03
2018-08-30T03:24:33.049Z,21.20
2018-08-30T03:27:07.453Z,20.20
2018-08-30T03:29:42.883Z,21.83
2018-08-30T03:32:17.472Z,18.23
2018-08-30T03:34:52.171Z,18.77
2018-08-30T03:37:26.691Z,17.67
2018-08-30T03:40:01.430Z,14.20
2018-08-30T03:42:36.465Z,12.87
2018-08-30T03:45:11.721Z,13.13
2018-08-30T03:47:45.598Z,11.73
2018-08-30T03:50:19.792Z,12.00
2018-08-30T03:52:54.376Z,11.97
2018-08-30T03:55:29.222Z,12.13
2018-08-30T03:58:04.006Z,11.40
2018-08-30T04:00:39.480Z,12.10
2018-08-30T04:03:14.119Z,13.00
2018-08-30T04:05:48.926Z,12.20
2018-08-30T04:08:23.034Z,11.10
2018-08-30T04:10:57.584Z,11.20
2018-08-30T04:13:31.660Z,12.10
2018-08-30T04:16:06.623Z,11.43
2018-08-30T04:18:41.651Z,12.53
2018-08-30T04:21:16.159Z,12.93
2018-08-30T04:23:50.576Z,13.80
2018-08-30T04:26:24.692Z,13.53
2018-08-30T04:28:59.218Z,14.23
2018-08-30T04:31:33.802Z,15.93
2018-08-30T04:34:09.207Z,15.57
2018-08-30T04:36:44.580Z,17.13
2018-08-30T04:39:18.711Z,18.20
2018-08-30T04:41:53.167Z,18.27
2018-08-30T04:44:28.633Z,20.27
2018-08-30T04:47:02.729Z,22.53
2018-08-30T04:49:37.820Z,22.93
2018-08-30T04:52:12.151Z,23.87
2018-08-30T04:54:46.845Z,25.80
2018-08-30T04:57:21.183Z,26.67
2018-08-30T04:59:56.262Z,28.77
2018-08-30T05:02:31.427Z,29.97
2018-08-30T05:05:12.310Z,30.13
2018-08-30T05:07:46.161Z,30.30
2018-08-30T05:10:20.929Z,30.33
2018-08-30T05:12:55.903Z,29.50
2018-08-30T05:15:30.352Z,31.93
2018-08-30T05:18:04.449Z,30.23
2018-08-30T05:20:38.588Z,29.60
2018-08-30T05:23:12.907Z,30.97
2018-08-30T05:25:46.793Z,30.53
2018-08-30T05:28:21.556Z,29.50
2018-08-30T05:30:55.943Z,29.83
2018-08-30T05:33:30.120Z,29.27
2018-08-30T05:36:08.012Z,29.63
2018-08-30T05:38:43.084Z,30.87
2018-08-30T05:41:17.221Z,30.67
2018-08-30T05:43:51.381Z,30.87
2018-08-30T05:46:26.061Z,31.20
2018-08-30T05:49:00.511Z,32.27
2018-08-30T05:51:34.834Z,33.00
2018-08-30T05:54:08.818Z,32.83
2018-08-30T05:56:43.920Z,33.83
2018-08-30T05:59:18.040Z,33.57
2018-08-30T06:01:53.066Z,34.07
2018-08-30T06:04:27.708Z,32.07
2018-08-30T06:07:02.166Z,31.13
2018-08-30T06:09:36.826Z,33.50
2018-08-30T06:12:10.963Z,32.07
2018-08-30T06:14:45.401Z,31.53
2018-08-30T06:17:19.782Z,35.73
2018-08-30T06:19:54.907Z,32.30
2018-08-30T06:22:29.836Z,33.40
2018-08-30T06:25:04.398Z,34.90
2018-08-30T06:27:38.601Z,32.73
2018-08-30T06:30:12.559Z,34.00
2018-08-30T06:32:46.835Z,33.17
2018-08-30T06:35:21.121Z,32.97
2018-08-30T06:37:55.611Z,32.53
2018-08-30T06:40:29.693Z,30.53
2018-08-30T06:43:04.362Z,33.70
2018-08-30T06:45:38.828Z,32.47
2018-08-30T06:48:13.259Z,32.60
2018-08-30T06:50:48.031Z,31.80
2018-08-30T06:53:22.438Z,33.60
2018-08-30T06:55:57.101Z,31.37
2018-08-30T06:58:38.161Z,32.63
2018-08-30T07:01:12.548Z,32.03
2018-08-30T07:03:46.581Z,32.73
2018-08-30T07:06:21.022Z,32.80
2018-08-30T07:08:55.426Z,32.03
2018-08-30T07:11:30.299Z,31.60
2018-08-30T07:14:05.302Z,31.93
2018-08-30T07:16:39.776Z,33.17
2018-08-30T07:19:14.443Z,31.13
2018-08-30T07:21:49.193Z,31.13
2018-08-30T07:24:24.109Z,29.70
2018-08-30T07:26:58.351Z,28.70
2018-08-30T07:29:33.252Z,28.67
2018-08-30T07:32:08.879Z,29.53
2018-08-30T07:34:43.393Z,28.63
2018-08-30T07:37:17.657Z,28.40
2018-08-30T07:39:52.129Z,27.13
2018-08-30T07:42:27.184Z,26.57
2018-08-30T07:45:01.534Z,26.40
2018-08-30T07:47:36.010Z,27.50
2018-08-30T07:50:10.737Z,26.60
2018-08-30T07:52:45.167Z,27.53
2018-08-30T07:55:20.114Z,28.53
2018-08-30T07:57:54.698Z,25.63
2018-08-30T08:00:29.468Z,26.63
2018-08-30T08:03:03.953Z,25.90
2018-08-30T08:05:37.971Z,25.60
2018-08-30T08:08:12.221Z,26.45
2018-08-30T08:10:46.998Z,25.43
2018-08-30T08:13:21.296Z,26.00
2018-08-30T08:15:55.962Z,25.33
2018-08-30T08:18:31.622Z,27.03
2018-08-30T08:21:06.174Z,26.67
2018-08-30T08:23:40.246Z,24.57
2018-08-30T08:26:14.496Z,25.50
2018-08-30T08:28:49.493Z,26.13
2018-08-30T08:31:23.926Z,26.17
2018-08-30T08:33:58.136Z,24.40
2018-08-30T08:36:32.931Z,22.40
2018-08-30T08:39:07.233Z,22.27
2018-08-30T08:41:42.490Z,22.47
2018-08-30T08:44:17.557Z,22.47
2018-08-30T08:46:53.422Z,21.63
2018-08-30T08:49:27.604Z,21.43
2018-08-30T08:52:01.531Z,22.30
2018-08-30T08:54:35.824Z,20.33
2018-08-30T08:57:09.799Z,22.20
2018-08-30T08:59:44.872Z,20.50
2018-08-30T09:02:19.311Z,23.40
2018-08-30T09:04:53.336Z,20.10
2018-08-30T09:07:28.085Z,19.67
2018-08-30T09:10:02.807Z,20.13
2018-08-30T09:12:37.941Z,20.33
2018-08-30T09:15:11.902Z,19.93
2018-08-30T09:17:46.042Z,20.23
2018-08-30T09:20:20.233Z,20.10
2018-08-30T09:22:54.732Z,18.53
2018-08-30T09:25:29.684Z,18.30
2018-08-30T09:28:04.370Z,17.00
2018-08-30T09:30:38.536Z,15.85
2018-08-30T09:33:12.727Z,15.30
2018-08-30T09:35:53.571Z,16.42
2018-08-30T09:38:28.250Z,14.78
2018-08-30T09:41:03.106Z,14.67
2018-08-30T09:43:37.416Z,14.83
2018-08-30T09:46:12.267Z,13.80
2018-08-30T09:48:46.383Z,13.97
2018-08-30T09:51:21.052Z,12.97
2018-08-30T09:53:54.887Z,12.88
2018-08-30T09:56:29.215Z,12.33
2018-08-30T09:59:03.436Z,13.00
2018-08-30T10:01:43.019Z,13.00
2018-08-30T10:04:17.992Z,11.20
2018-08-30T10:06:52.787Z,10.60
2018-08-30T10:09:28.042Z,10.13
2018-08-30T10:12:02.393Z,10.23
2018-08-30T10:14:36.696Z,9.98
2018-08-30T10:17:11.172Z,8.73
2018-08-30T10:19:45.943Z,8.40
2018-08-30T10:22:20.459Z,8.60
2018-08-30T10:24:54.756Z,8.18
2018-08-30T10:27:35.641Z,8.63
2018-08-30T10:30:10.381Z,8.63
2018-08-30T10:32:44.856Z,8.08
2018-08-30T10:35:19.831Z,7.75
2018-08-30T10:37:54.696Z,7.87
2018-08-30T10:40:29.036Z,8.73
2018-08-30T10:43:03.581Z,7.60
2018-08-30T10:45:38.553Z,7.92
2018-08-30T10:48:12.771Z,7.42
2018-08-30T10:50:47.220Z,7.30
2018-08-30T10:53:22.271Z,7.28
2018-08-30T10:55:56.788Z,6.85
2018-08-30T10:58:32.531Z,6.47
2018-08-30T11:01:07.038Z,6.67
2018-08-30T11:03:41.563Z,6.95
2018-08-30T11:06:16.552Z,6.58
2018-08-30T11:08:50.964Z,6.83
2018-08-30T11:11:25.787Z,6.80
2018-08-30T11:14:00.169Z,6.60
2018-08-30T11:16:34.359Z,6.83
2018-08-30T11:19:09.302Z,6.75
2018-08-30T11:21:43.763Z,7.20
2018-08-30T11:24:19.129Z,7.35
2018-08-30T11:26:53.387Z,7.17
2018-08-30T11:29:28.032Z,6.33
2018-08-30T11:32:02.210Z,6.30
2018-08-30T11:34:36.463Z,6.47
2018-08-30T11:37:10.329Z,6.35
2018-08-30T11:39:45.897Z,6.92
2018-08-30T11:42:21.152Z,6.53
2018-08-30T11:44:55.951Z,6.25
2018-08-30T11:47:31.162Z,6.42
2018-08-30T11:50:05.730Z,6.40
2018-08-30T11:52:40.798Z,6.00
2018-08-30T11:55:15.174Z,5.92
2018-08-30T11:57:50.208Z,5.92
2018-08-30T12:00:24.462Z,5.70
2018-08-30T12:02:59.451Z,6.03
2018-08-30T12:05:33.691Z,6.25
2018-08-30T12:08:08.328Z,5.95
2018-08-30T12:10:42.856Z,5.03
2018-08-30T12:13:17.039Z,5.80
2018-08-30T12:15:51.252Z,5.50
2018-08-30T12:18:26.342Z,5.70
2018-08-30T12:21:00.552Z,5.67
2018-08-30T12:23:35.174Z,5.72
2018-08-30T12:26:10.277Z,6.35
2018-08-30T12:28:44.498Z,5.95
2018-08-30T12:31:19.079Z,6.05
2018-08-30T12:33:53.963Z,5.42
2018-08-30T12:36:28.621Z,5.80
2018-08-30T12:39:03.955Z,5.10
2018-08-30T12:41:38.081Z,5.58
2018-08-30T12:44:13.083Z,5.50
2018-08-30T12:46:48.053Z,6.05
2018-08-30T12:49:23.114Z,5.53
2018-08-30T12:51:58.168Z,5.03
2018-08-30T12:54:33.300Z,4.67
2018-08-30T12:57:08.063Z,5.20
2018-08-30T12:59:42.826Z,5.45
2018-08-30T13:02:17.500Z,4.83
2018-08-30T13:04:51.633Z,4.42
2018-08-30T13:07:29.607Z,5.00
2018-08-30T13:10:04.672Z,5.20
2018-08-30T13:12:40.540Z,4.40
2018-08-30T13:15:15.428Z,5.22
2018-08-30T13:17:50.290Z,4.83
2018-08-30T13:20:24.410Z,4.70
2018-08-30T13:23:01.483Z,4.75
2018-08-30T13:25:38.147Z,4.97
2018-08-30T13:28:14.502Z,4.80
2018-08-30T13:30:49.706Z,4.70
2018-08-30T13:33:24.512Z,4.58
2018-08-30T13:35:59.311Z,4.58
2018-08-30T13:38:34.418Z,4.45
2018-08-30T13:41:09.965Z,4.30
2018-08-30T13:43:43.991Z,4.55
2018-08-30T13:46:18.488Z,5.10
2018-08-30T13:48:53.592Z,4.80
2018-08-30T13:51:28.729Z,4.55
2018-08-30T13:54:04.233Z,4.67
2018-08-30T13:56:38.802Z,4.60
2018-08-30T13:59:13.534Z,4.47
2018-08-30T14:01:48.487Z,4.47
2018-08-30T14:04:23.284Z,4.58
2018-08-30T14:06:58.176Z,4.35
2018-08-30T14:09:33.217Z,4.17
2018-08-30T14:12:08.388Z,4.55
2018-08-30T14:14:47.984Z,4.25
2018-08-30T14:17:23.398Z,4.28
2018-08-30T14:19:58.019Z,4.35
2018-08-30T14:22:38.669Z,4.00
2018-08-30T14:25:13.512Z,3.80
2018-08-30T14:27:47.575Z,4.40
2018-08-30T14:30:22.605Z,4.42
2018-08-30T14:32:58.002Z,4.35
2018-08-30T14:35:32.878Z,3.95
2018-08-30T14:38:07.354Z,4.22
2018-08-30T14:40:41.888Z,4.30
2018-08-30T14:43:16.097Z,4.35
2018-08-30T14:45:50.783Z,4.10
2018-08-30T14:48:25.053Z,4.20
2018-08-30T14:50:59.561Z,3.83
2018-08-30T14:53:33.877Z,4.37
2018-08-30T14:56:08.120Z,3.60
2018-08-30T14:58:42.538Z,3.80
2018-08-30T15:01:16.962Z,4.28
2018-08-30T15:03:51.373Z,3.55
2018-08-30T15:06:26.561Z,3.58
2018-08-30T15:09:00.810Z,3.47
2018-08-30T15:11:42.168Z,3.40
2018-08-30T15:14:17.130Z,3.30
2018-08-30T15:16:51.593Z,3.25
2018-08-30T15:19:26.092Z,3.10
2018-08-30T15:22:01.087Z,2.77
2018-08-30T15:24:35.358Z,2.10
2018-08-30T15:27:09.330Z,2.80
2018-08-30T15:29:44.417Z,2.58
2018-08-30T15:32:19.288Z,2.52
2018-08-30T15:34:54.803Z,2.35
2018-08-30T15:37:29.357Z,2.55
2018-08-30T15:40:04.781Z,3.00
2018-08-30T15:42:39.563Z,2.62
2018-08-30T15:45:14.013Z,2.35
2018-08-30T15:47:48.070Z,2.37
2018-08-30T15:50:22.698Z,2.75
2018-08-30T15:52:56.797Z,2.50
2018-08-30T15:55:31.349Z,2.40
2018-08-30T15:58:05.793Z,2.60
2018-08-30T16:00:40.421Z,2.60
2018-08-30T16:03:14.576Z,2.40
2018-08-30T16:05:49.589Z,2.90
2018-08-30T16:08:24.663Z,2.40
2018-08-30T16:10:59.774Z,2.52
2018-08-30T16:13:34.546Z,2.40
2018-08-30T16:16:08.955Z,2.70
2018-08-30T16:18:44.079Z,2.50
2018-08-30T16:21:18.445Z,3.45
2018-08-30T16:23:53.217Z,3.12
2018-08-30T16:26:27.942Z,3.20
2018-08-30T16:29:03.260Z,3.45
2018-08-30T16:31:37.447Z,3.08
2018-08-30T16:34:11.946Z,2.50
2018-08-30T16:36:46.979Z,2.50
2018-08-30T16:39:21.072Z,2.45
2018-08-30T16:41:55.437Z,2.30
2018-08-30T16:44:29.926Z,2.58
2018-08-30T16:47:04.940Z,2.90
2018-08-30T16:49:41.117Z,2.72
2018-08-30T16:52:17.317Z,2.77
2018-08-30T16:54:58.451Z,2.42
2018-08-30T16:57:32.997Z,2.67
2018-08-30T17:00:07.801Z,2.52
2018-08-30T17:02:48.842Z,2.70
2018-08-30T17:05:23.371Z,2.70
2018-08-30T17:07:58.428Z,2.67
2018-08-30T17:10:32.863Z,2.70
2018-08-30T17:13:07.047Z,2.50
2018-08-30T17:15:41.440Z,2.55
2018-08-30T17:18:16.322Z,2.70
2018-08-30T17:20:52.251Z,4.30
2018-08-30T17:23:26.784Z,2.90
2018-08-30T17:26:01.951Z,2.70
2018-08-30T17:28:36.268Z,2.90
2018-08-30T17:31:10.567Z,2.92
2018-08-30T17:33:45.067Z,2.90
2018-08-30T17:36:19.859Z,2.60
2018-08-30T17:38:54.817Z,3.08
2018-08-30T17:41:29.530Z,2.63
2018-08-30T17:44:04.077Z,2.73
2018-08-30T17:46:39.385Z,2.80
2018-08-30T17:49:13.626Z,3.00
2018-08-30T17:51:48.589Z,2.60
2018-08-30T17:54:23.882Z,2.40
2018-08-30T17:56:58.409Z,3.00
2018-08-30T17:59:32.716Z,2.40
2018-08-30T18:02:07.422Z,2.33
2018-08-30T18:04:42.239Z,2.67
2018-08-30T18:07:16.482Z,2.50
2018-08-30T18:09:53.468Z,2.13
2018-08-30T18:12:30.465Z,2.40
2018-08-30T18:15:05.008Z,2.13
2018-08-30T18:17:39.360Z,2.70
2018-08-30T18:20:13.606Z,3.20
2018-08-30T18:22:47.936Z,2.07
2018-08-30T18:25:22.313Z,2.20
2018-08-30T18:27:56.664Z,2.67
2018-08-30T18:30:31.186Z,2.33
2018-08-30T18:33:05.636Z,2.37
2018-08-30T18:35:40.052Z,2.37
2018-08-30T18:38:14.320Z,2.73
2018-08-30T18:40:48.886Z,2.27
2018-08-30T18:43:23.539Z,2.50
2018-08-30T18:45:58.137Z,2.43
2018-08-30T18:48:33.379Z,2.47
2018-08-30T18:51:07.798Z,2.60
2018-08-30T18:53:42.649Z,2.67
2018-08-30T18:56:17.652Z,3.40
2018-08-30T18:58:53.056Z,2.87
2018-08-30T19:01:27.580Z,2.60
2018-08-30T19:04:01.937Z,2.30
2018-08-30T19:06:37.069Z,2.80
2018-08-30T19:09:12.312Z,2.63
2018-08-30T19:11:47.209Z,2.73
2018-08-30T19:14:21.558Z,2.57
2018-08-30T19:17:01.281Z,2.60
2018-08-30T19:19:36.366Z,2.50
2018-08-30T19:22:11.423Z,2.37
2018-08-30T19:24:51.691Z,2.40
2018-08-30T19:27:26.445Z,2.63
2018-08-30T19:30:06.641Z,2.20
2018-08-30T19:32:41.121Z,2.30
2018-08-30T19:36:20.493Z,2.30
2018-08-30T19:38:54.993Z,2.70
2018-08-30T19:41:30.018Z,2.10
2018-08-30T19:44:04.292Z,2.40
2018-08-30T19:46:38.614Z,2.57
2018-08-30T19:49:14.244Z,2.13
2018-08-30T19:51:49.339Z,2.70
2018-08-30T19:54:23.990Z,2.63
2018-08-30T19:56:58.594Z,2.83
2018-08-30T19:59:32.849Z,2.77
2018-08-30T20:02:07.149Z,2.57
2018-08-30T20:04:41.873Z,3.00
2018-08-30T20:07:16.147Z,3.00
2018-08-30T20:09:50.658Z,2.67
2018-08-30T20:12:24.676Z,2.53
2018-08-30T20:14:59.165Z,3.30
2018-08-30T20:17:33.956Z,2.57
2018-08-30T20:20:08.449Z,2.70
2018-08-30T20:22:43.504Z,2.97
2018-08-30T20:25:17.652Z,3.10
2018-08-30T20:27:52.341Z,3.23
2018-08-30T20:30:27.657Z,2.87
2018-08-30T20:33:02.671Z,2.97
2018-08-30T20:35:38.026Z,3.37
2018-08-30T20:38:12.847Z,3.20
2018-08-30T20:40:47.042Z,3.50
2018-08-30T20:43:22.067Z,4.40
2018-08-30T20:45:56.977Z,3.30
2018-08-30T20:48:31.460Z,3.60
2018-08-30T20:51:05.964Z,3.80
2018-08-30T20:53:40.726Z,5.53
2018-08-30T20:56:15.200Z,4.23
2018-08-30T20:58:49.477Z,3.83
2018-08-30T21:01:24.587Z,3.30
2018-08-30T21:03:59.587Z,3.40
2018-08-30T21:06:34.092Z,3.60
2018-08-30T21:09:09.817Z,3.60
2018-08-30T21:11:44.295Z,3.43
2018-08-30T21:14:18.706Z,3.63
2018-08-30T21:16:54.020Z,4.17
2018-08-30T21:19:28.303Z,3.30
2018-08-30T21:22:02.972Z,3.90
2018-08-30T21:24:40.181Z,4.43
2018-08-30T21:27:15.330Z,3.33
2018-08-30T21:29:50.159Z,3.47
2018-08-30T21:32:25.471Z,3.73
2018-08-30T21:34:59.531Z,3.30
2018-08-30T21:37:34.126Z,3.43
2018-08-30T21:40:09.451Z,3.60
2018-08-30T21:42:44.754Z,3.33
2018-08-30T21:45:18.943Z,3.90
2018-08-30T21:47:56.207Z,3.77
2018-08-30T21:50:30.751Z,3.77
2018-08-30T21:53:05.492Z,3.63
2018-08-30T21:55:39.623Z,3.60
2018-08-30T21:58:14.244Z,3.87
2018-08-30T22:00:49.236Z,3.90
2018-08-30T22:03:24.257Z,3.60
2018-08-30T22:05:59.206Z,4.20
2018-08-30T22:08:33.602Z,3.60
2018-08-30T22:11:07.785Z,4.53
2018-08-30T22:13:42.742Z,4.43
2018-08-30T22:16:16.878Z,3.73
2018-08-30T22:18:51.703Z,3.87
2018-08-30T22:21:26.027Z,4.27
2018-08-30T22:24:00.122Z,3.80
2018-08-30T22:26:35.278Z,4.30
2018-08-30T22:29:09.572Z,4.03
2018-08-30T22:31:43.632Z,4.50
2018-08-30T22:34:18.142Z,4.40
2018-08-30T22:36:52.252Z,3.97
2018-08-30T22:39:26.680Z,3.60
2018-08-30T22:42:00.906Z,4.17
2018-08-30T22:44:35.513Z,3.40
2018-08-30T22:47:09.700Z,3.70
2018-08-30T22:49:45.007Z,3.93
2018-08-30T22:52:19.182Z,4.10
2018-08-30T22:54:53.918Z,3.90
2018-08-30T22:57:28.374Z,4.40
2018-08-30T23:00:03.481Z,4.20
2018-08-30T23:02:37.512Z,4.03
2018-08-30T23:05:11.967Z,4.37
2018-08-30T23:07:45.877Z,4.10
2018-08-30T23:10:20.522Z,4.50
2018-08-30T23:12:54.788Z,4.20
2018-08-30T23:15:29.529Z,4.70
2018-08-30T23:18:04.121Z,4.87
2018-08-30T23:20:38.445Z,4.93
2018-08-30T23:23:12.568Z,5.43
2018-08-30T23:25:46.601Z,5.03
2018-08-30T23:28:21.043Z,5.00
2018-08-30T23:30:55.537Z,5.40
2018-08-30T23:33:30.661Z,5.17
2018-08-30T23:36:05.896Z,4.53
2018-08-30T23:38:39.820Z,4.33
2018-08-30T23:41:14.494Z,5.10
2018-08-30T23:43:49.266Z,6.47
2018-08-30T23:46:24.317Z,7.27
2018-08-30T23:48:58.470Z,6.53
2018-08-30T23:51:32.466Z,6.10
2018-08-30T23:54:07.222Z,5.23
2018-08-30T23:56:41.403Z,4.90
